Flight Track Log - Related Links

Times and Time Zones

All times are in EDT time to prevent confusion due to time zone crossing. See the SWA442 flight status page for this flight to view local times or setup timezone preferences in your user account.

Time Position Orientation Groundspeed Altitude Reporting Facility
EDT Latitude Longitude Course Direction KTS MPH feet Rate Location/Type
Mon 08:31:32 AM 39.4220 -75.5674 247° West  Level FlightAware
Mon 08:32:32 AM 39.4810 -75.4424 246° West  Level FlightAware
Mon 08:33:32 AM 39.5398 -75.3172 245° Southwest  Level FlightAware
Mon 08:34:32 AM 39.6457 -75.2819 241° Southwest  Level FlightAware
Mon 08:35:32 AM 39.7042 -75.1561 241° Southwest  Level FlightAware
Mon 08:36:32 AM 39.7625 -75.0301 240° Southwest  Level FlightAware
Mon 08:37:32 AM 39.8207 -74.9038 240° Southwest  Level FlightAware
Mon 08:38:32 AM 39.9280 -74.8688 237° Southwest  Level FlightAware
Mon 08:39:32 AM 39.9880 -74.7438 237° Southwest  Level FlightAware
Mon 08:40:03 AM 39.1311 -76.4478 82° East 399 459 9,300  Level Washington Center
Mon 08:43:03 AM 39.1686 -76.0869 82° East 343 395 18,200 2,838 Climbing Washington Center
Mon 08:44:04 AM 39.1839 -75.9531 63° Northeast 356 410 20,700 2,579 Climbing Washington Center
Mon 08:45:04 AM 39.2319 -75.8300 45° Northeast 370 426 23,400 2,288 Climbing Washington Center
Mon 08:46:02 AM 39.3156 -75.7231 45° Northeast 388 447 25,200 1,881 Climbing Washington Center
Mon 08:47:02 AM 39.4031 -75.6103 45° Northeast 410 472 27,100 1,835 Climbing Washington Center
Mon 08:48:03 AM 39.4928 -75.4947 46° Northeast 424 488 28,900 2,033 Climbing Washington Center
Mon 08:49:03 AM 39.5781 -75.3814 46° Northeast 438 504 31,200 1,863 Climbing Washington Center
Mon 08:50:44 AM 39.7136 -75.1994 49° Northeast 438 504 33,900 1,407 Climbing New Center
Mon 08:51:45 AM 39.8061 -75.0619 47° Northeast 450 518 35,000 555 Climbing New Center
Mon 08:52:43 AM 39.8917 -74.9428 49° Northeast 455 524 35,000  Level New Center
Mon 08:53:44 AM 39.9731 -74.8203 59° Northeast 449 517 35,000  Level New Center
Mon 08:54:45 AM 40.0294 -74.6961 63° Northeast 448 516 35,000  Level New Center
Mon 08:55:44 AM 40.0886 -74.5422 63° Northeast 436 502 35,000  Level New Center
Mon 08:56:45 AM 40.1475 -74.3933 63° Northeast 444 511 35,000  Level New Center
Mon 08:57:43 AM 40.2042 -74.2469 64° Northeast 444 511 35,000  Level New Center
Mon 08:59:27 AM 40.2972 -73.9964 63° Northeast 431 496 35,000 -695 Level Boston Center
Mon 09:00:27 AM 40.3533 -73.8506 64° Northeast 431 496 33,100 -2,000 Descending Boston Center
Mon 09:01:27 AM 40.4072 -73.7044 63° Northeast 431 496 31,000 -1,900 Descending Boston Center
Mon 09:02:27 AM 40.4567 -73.5747 63° Northeast 436 502 29,300 -1,850 Descending Boston Center
Mon 09:03:27 AM 40.5100 -73.4364 64° Northeast 430 495 27,300 -1,450 Descending Boston Center
Mon 09:04:27 AM 40.5589 -73.3033 64° Northeast 416 479 26,400 -950 Descending Boston Center
Mon 09:05:27 AM 40.6078 -73.1728 64° Northeast 405 466 25,400 -1,050 Descending Boston Center
Mon 09:06:27 AM 40.6567 -73.0419 63° Northeast 395 455 24,300 -1,050 Descending Boston Center
Mon 09:07:27 AM 40.7050 -72.9164 66° East 389 448 23,300 -1,000 Descending Boston Center
Mon 09:08:27 AM 40.7472 -72.7881 64° Northeast 384 442 22,300 -1,000 Descending Boston Center
Mon 09:09:27 AM 40.7933 -72.6622 64° Northeast 379 436 21,300 -1,000 Descending Boston Center
Mon 09:10:27 AM 40.8372 -72.5417 65° Northeast 379 436 20,300 -1,350 Descending Boston Center
Mon 09:11:27 AM 40.8833 -72.4100 60° Northeast 368 423 18,600 -1,667 Descending Boston Center
Mon 09:11:57 AM 40.9042 -72.3631 69° East 359 413 17,800 -1,600 Descending Boston Center
Mon 09:12:27 AM 40.9206 -72.3056 66° East 357 411 17,000 -1,867 Descending Boston Center
Mon 09:13:27 AM 40.9600 -72.1872 66° East 352 405 15,000 -1,900 Descending Boston Center
Mon 09:14:27 AM 40.9994 -72.0717 67° East 347 399 13,200 -1,800 Descending Boston Center
Mon 09:15:27 AM 41.0364 -71.9586 58° Northeast 341 392 11,400 -1,565 Descending Boston Center
Mon 09:15:59 AM 41.0653 -71.8978 48° Northeast 321 369 10,800 -1,032 Descending Boston Center
Mon 09:17:00 AM 41.1192 -71.8175 51° Northeast 294 338 9,800 -1,240 Descending Boston Center
Mon 09:18:00 AM 41.1708 -71.7342 51° Northeast 289 333 8,300 -1,465 Descending Boston Center
Mon 09:19:07 AM 41.2264 -71.6425 50° Northeast 284 327 6,700 -1,359 Descending Boston Center
Mon 09:20:08 AM 41.2778 -71.5617 40° Northeast 273 314 5,400 -942 Descending Boston Center
Mon 09:21:08 AM 41.3336 -71.5003 38° Northeast 269 310 4,800 -1,041 Descending Boston Center
Mon 09:22:09 AM 41.3936 -71.4383 35° Northeast 271 312 3,300 -1,339 Descending Boston Center
Mon 09:23:09 AM 41.4533 -71.3822 37° Northeast 264 304 2,100 -694 Descending Boston Center
Mon 09:24:10 AM 41.5092 -71.3258 26° Northeast 254 292 1,900 -98 Descending Boston Center
Mon 09:25:11 AM 41.5631 -71.2914 338° Northwest 212 244 1,900 50 Level Boston Center
Mon 09:26:11 AM 41.6194 -71.3211 325° Northwest 209 241 2,000 -198 Climbing Boston Center
Mon 09:27:12 AM 41.6594 -71.3592 323° Northwest 177 204 1,500 -626 Descending Boston Center
Mon 09:28:06 AM 41.6889 -71.3892 323° Northwest 147 169 800 -778 Descending Boston Center

Login

Don't have an account? Register now (free) for customized features, flight alerts, and more!